Time;durP1;ratioP1;P1;durP2;ratioP2;P2;SDS_P1;SDS_P2;PMS_P1;PMS_P2;Temp;Humidity;BMP_temperature;BMP_pressure;BME280_temperature;BME280_humidity;BME280_pressure;Samples;Min_cycle;Max_cycle;Signal;HPM_P1;HPM_P2
2021/01/20 00:02:20;;;;;;;1.80;1.40;;;18.70;53.00;;;;;;5084572;28;20215;-60
2021/01/20 00:04:45;;;;;;;2.67;1.67;;;18.70;53.00;;;;;;5084388;28;20178;-60
2021/01/20 00:07:11;;;;;;;1.58;1.40;;;18.60;52.90;;;;;;5084234;28;20327;-60
2021/01/20 00:09:36;;;;;;;2.08;1.80;;;18.70;52.90;;;;;;5084482;28;20177;-59
2021/01/20 00:12:02;;;;;;;3.45;2.00;;;18.60;52.90;;;;;;5084296;28;20589;-60
2021/01/20 00:14:28;;;;;;;2.05;1.70;;;18.60;52.90;;;;;;5084484;28;20260;-60
2021/01/20 00:16:53;;;;;;;2.80;1.52;;;18.60;52.90;;;;;;5084372;28;20188;-60
2021/01/20 00:19:19;;;;;;;2.10;1.88;;;18.60;52.90;;;;;;5084409;28;20177;-61
2021/01/20 00:21:44;;;;;;;1.70;1.60;;;18.60;52.90;;;;;;5066944;28;20215;-60
2021/01/20 00:24:10;;;;;;;2.20;1.58;;;18.50;52.90;;;;;;5084257;28;20261;-58
2021/01/20 00:26:35;;;;;;;1.67;1.52;;;18.50;53.50;;;;;;5084301;28;20231;-60
2021/01/20 00:29:01;;;;;;;2.10;1.50;;;18.50;52.90;;;;;;5084281;28;20200;-59
2021/01/20 00:31:26;;;;;;;2.05;1.85;;;18.40;52.80;;;;;;5087257;28;20256;-60
2021/01/20 00:33:52;;;;;;;1.88;1.52;;;18.40;52.80;;;;;;5088688;28;20615;-56
2021/01/20 00:36:18;;;;;;;2.00;1.80;;;18.40;52.90;;;;;;5088280;28;20253;-57
2021/01/20 00:38:43;;;;;;;2.45;1.75;;;18.40;52.90;;;;;;5088403;28;20535;-58
2021/01/20 00:41:09;;;;;;;2.20;1.63;;;18.30;52.80;;;;;;5088259;28;20213;-60
2021/01/20 00:43:34;;;;;;;2.00;1.80;;;18.30;52.90;;;;;;5088765;28;20466;-59
2021/01/20 00:46:00;;;;;;;3.70;2.00;;;18.30;52.90;;;;;;5088074;28;20185;-60
2021/01/20 00:48:25;;;;;;;1.77;1.60;;;18.30;52.90;;;;;;5087966;28;20291;-60
2021/01/20 00:50:57;;;;;;;1.88;1.67;;;18.30;52.90;;;;;;5070120;28;20651;-59
2021/01/20 00:53:23;;;;;;;2.30;1.80;;;18.20;52.90;;;;;;5087865;28;20257;-59
2021/01/20 00:55:48;;;;;;;2.10;1.75;;;18.20;52.90;;;;;;5088133;28;20255;-57
2021/01/20 00:58:14;;;;;;;2.58;1.50;;;18.20;52.90;;;;;;5070101;28;20178;-59
2021/01/20 01:00:40;;;;;;;2.35;1.85;;;18.20;53.00;;;;;;5088238;28;20197;-59
2021/01/20 01:03:06;;;;;;;2.45;1.75;;;18.20;52.90;;;;;;5088212;28;20535;-57
2021/01/20 01:05:31;;;;;;;2.38;1.80;;;18.10;52.90;;;;;;5087917;28;20170;-58
2021/01/20 01:07:57;;;;;;;1.95;1.58;;;18.20;52.90;;;;;;5087694;28;20291;-59
2021/01/20 01:10:22;;;;;;;1.83;1.73;;;18.10;52.90;;;;;;5087607;28;20210;-58
2021/01/20 01:12:48;;;;;;;1.80;1.70;;;18.10;52.90;;;;;;5087562;28;20173;-58
2021/01/20 01:15:14;;;;;;;2.38;1.77;;;18.10;52.90;;;;;;5087665;28;20178;-59
2021/01/20 01:17:39;;;;;;;2.08;1.75;;;18.10;52.90;;;;;;5087444;28;21018;-59
2021/01/20 01:20:05;;;;;;;2.45;1.92;;;18.10;52.90;;;;;;5087162;28;20205;-60
2021/01/20 01:22:31;;;;;;;2.28;1.48;;;18.00;53.00;;;;;;5087678;28;20182;-59
2021/01/20 01:24:56;;;;;;;2.97;2.05;;;18.00;52.90;;;;;;5087511;28;20200;-57
2021/01/20 01:27:22;;;;;;;2.13;1.92;;;18.00;52.90;;;;;;5087293;28;20213;-54
2021/01/20 01:29:48;;;;;;;2.10;1.70;;;18.00;52.90;;;;;;5087041;28;20263;-59
2021/01/20 01:32:13;;;;;;;1.65;1.50;;;18.00;52.90;;;;;;5087237;28;20201;-58
2021/01/20 01:34:39;;;;;;;2.50;1.90;;;18.00;52.90;;;;;;5087282;28;20174;-57
2021/01/20 01:37:04;;;;;;;1.75;1.52;;;18.00;53.00;;;;;;5087299;28;20261;-57
2021/01/20 01:39:30;;;;;;;1.90;1.70;;;18.00;52.90;;;;;;5087143;28;20182;-59
2021/01/20 01:41:56;;;;;;;2.78;1.65;;;17.90;52.90;;;;;;5086191;28;20170;-60
2021/01/20 01:44:21;;;;;;;2.63;1.60;;;17.90;52.90;;;;;;5087131;28;20170;-55
2021/01/20 01:46:47;;;;;;;2.53;1.83;;;17.90;52.90;;;;;;5086923;28;20228;-60
2021/01/20 01:49:12;;;;;;;2.22;1.80;;;17.90;52.90;;;;;;5086985;28;20174;-60
2021/01/20 01:51:38;;;;;;;1.75;1.60;;;17.90;53.00;;;;;;5086729;28;20173;-57
2021/01/20 01:54:04;;;;;;;3.95;2.08;;;17.90;53.10;;;;;;5086377;28;20181;-59
2021/01/20 01:56:30;;;;;;;2.28;1.70;;;17.90;52.90;;;;;;5068911;28;20597;-57
2021/01/20 01:58:55;;;;;;;2.00;1.63;;;17.80;52.90;;;;;;5068659;28;20177;-59
2021/01/20 02:01:21;;;;;;;2.75;1.80;;;17.80;52.90;;;;;;5086693;28;20232;-59
2021/01/20 02:03:50;;;;;;;2.38;1.98;;;17.80;52.90;;;;;;5086703;28;20207;-57
2021/01/20 02:06:15;;;;;;;2.17;1.85;;;17.80;52.80;;;;;;5068515;28;20537;-59
2021/01/20 02:08:42;;;;;;;2.42;1.52;;;17.80;52.80;;;;;;5086549;28;20206;-58
2021/01/20 02:11:27;;;;;;;2.80;1.58;;;17.80;52.80;;;;;;5068524;28;20170;-57
2021/01/20 02:14:05;;;;;;;2.10;1.70;;;17.80;52.90;;;;;;5044834;28;20223;-60
2021/01/20 02:16:30;;;;;;;2.08;1.90;;;17.80;52.80;;;;;;5068203;28;20170;-55
2021/01/20 02:18:56;;;;;;;2.33;1.75;;;17.70;52.80;;;;;;5068533;28;20231;-58
2021/01/20 02:21:34;;;;;;;2.58;2.05;;;17.80;52.80;;;;;;5068391;28;20181;-59
2021/01/20 02:24:04;;;;;;;1.88;1.73;;;17.70;52.70;;;;;;5086370;28;20639;-58
2021/01/20 02:27:01;;;;;;;2.05;1.70;;;17.70;52.70;;;;;;5068268;28;20185;-58
2021/01/20 02:29:29;;;;;;;1.70;1.40;;;17.70;52.70;;;;;;5069604;28;20598;-59
2021/01/20 02:31:55;;;;;;;2.00;1.85;;;17.70;52.70;;;;;;5068438;28;20278;-55
2021/01/20 02:34:21;;;;;;;2.85;1.98;;;17.70;52.70;;;;;;5068128;28;20652;-58
2021/01/20 02:36:47;;;;;;;2.30;1.52;;;17.70;52.70;;;;;;5068141;28;20174;-55
2021/01/20 02:39:12;;;;;;;2.45;1.75;;;17.70;52.60;;;;;;5068108;28;20162;-56
2021/01/20 02:41:38;;;;;;;1.92;1.52;;;17.70;52.60;;;;;;5068054;28;20170;-59
2021/01/20 02:44:04;;;;;;;2.38;1.75;;;17.60;52.60;;;;;;5085917;28;20203;-58
2021/01/20 02:46:30;;;;;;;2.47;1.90;;;17.70;52.70;;;;;;5085279;28;20235;-60
2021/01/20 02:48:56;;;;;;;3.30;1.83;;;17.60;52.60;;;;;;5085985;28;20526;-59
2021/01/20 02:51:54;;;;;;;2.55;1.98;;;17.60;52.60;;;;;;5067367;28;20681;-57
2021/01/20 02:54:19;;;;;;;2.75;1.92;;;17.60;52.60;;;;;;5083752;28;20197;-59
2021/01/20 02:56:47;;;;;;;2.60;1.65;;;17.60;52.60;;;;;;5067494;28;20181;-56
2021/01/20 02:59:13;;;;;;;2.38;2.13;;;17.60;52.60;;;;;;5085190;28;20589;-57
2021/01/20 03:01:40;;;;;;;2.08;1.85;;;17.60;52.60;;;;;;5085546;28;20227;-58
2021/01/20 03:04:05;;;;;;;2.50;1.80;;;17.60;52.80;;;;;;5067565;28;20201;-57
2021/01/20 03:06:31;;;;;;;3.78;2.25;;;17.60;52.60;;;;;;5067437;28;20206;-58
2021/01/20 03:08:57;;;;;;;1.92;1.73;;;17.60;52.60;;;;;;5067178;28;20174;-59
2021/01/20 03:11:22;;;;;;;2.75;1.95;;;17.50;52.50;;;;;;5050829;28;20193;-59
2021/01/20 03:13:48;;;;;;;5.28;2.10;;;17.50;52.50;;;;;;5085166;28;20182;-56
2021/01/20 03:16:14;;;;;;;2.70;2.00;;;17.50;52.60;;;;;;5085336;28;20540;-58
2021/01/20 03:18:40;;;;;;;2.00;1.80;;;17.50;52.50;;;;;;5067245;28;20182;-53
2021/01/20 03:21:05;;;;;;;1.95;1.80;;;17.50;52.50;;;;;;5085108;28;21079;-54
2021/01/20 03:23:31;;;;;;;3.22;2.40;;;17.50;52.50;;;;;;5085014;28;20342;-59
2021/01/20 03:25:57;;;;;;;4.30;2.42;;;17.50;52.60;;;;;;5085076;28;20178;-57
2021/01/20 03:28:23;;;;;;;2.05;1.88;;;17.50;52.50;;;;;;5085020;28;20214;-57
2021/01/20 03:30:49;;;;;;;2.20;2.00;;;17.50;52.50;;;;;;5084700;28;20559;-57
2021/01/20 03:33:15;;;;;;;2.20;1.95;;;17.50;52.50;;;;;;5085087;28;20521;-58
2021/01/20 03:35:40;;;;;;;3.60;2.08;;;17.40;52.50;;;;;;5084669;28;20196;-57
2021/01/20 03:38:06;;;;;;;2.22;1.98;;;17.40;52.50;;;;;;5084549;28;20273;-56
2021/01/20 03:40:32;;;;;;;2.20;2.00;;;17.40;52.50;;;;;;5084996;28;20208;-59
2021/01/20 03:42:58;;;;;;;1.73;1.60;;;17.40;52.60;;;;;;5084801;28;20173;-58
2021/01/20 03:45:23;;;;;;;1.65;1.55;;;17.50;52.60;;;;;;5084929;28;20215;-60
2021/01/20 03:47:49;;;;;;;1.77;1.67;;;17.40;52.60;;;;;;5084847;28;20582;-60
2021/01/20 03:50:14;;;;;;;2.00;1.80;;;17.40;52.60;;;;;;5084628;28;20169;-57
2021/01/20 03:52:40;;;;;;;2.20;2.00;;;17.40;52.60;;;;;;5084438;28;20589;-58
2021/01/20 03:55:06;;;;;;;2.17;1.98;;;17.40;53.20;;;;;;5084760;28;20170;-57
2021/01/20 03:57:31;;;;;;;1.88;1.70;;;17.40;52.50;;;;;;5084428;28;20261;-58
2021/01/20 03:59:57;;;;;;;2.67;2.05;;;17.40;52.60;;;;;;5084534;28;20206;-57
2021/01/20 04:02:22;;;;;;;2.22;1.90;;;17.40;52.50;;;;;;5084261;28;20173;-57
2021/01/20 04:04:48;;;;;;;3.00;2.20;;;17.40;52.50;;;;;;5084341;28;20231;-59
2021/01/20 04:07:13;;;;;;;2.53;2.08;;;17.40;52.60;;;;;;5084695;28;20202;-60
2021/01/20 04:09:39;;;;;;;2.33;2.08;;;17.40;52.50;;;;;;5084558;28;20182;-58
2021/01/20 04:12:05;;;;;;;2.05;1.85;;;17.40;52.50;;;;;;5084346;28;20174;-57
2021/01/20 04:14:30;;;;;;;1.90;1.80;;;17.30;52.40;;;;;;5084621;28;20202;-59
2021/01/20 04:16:56;;;;;;;2.45;2.25;;;17.40;52.60;;;;;;5084717;28;20174;-58
2021/01/20 04:19:22;;;;;;;1.70;1.60;;;17.30;52.50;;;;;;5084523;28;20177;-60
2021/01/20 04:21:49;;;;;;;2.20;1.85;;;17.30;52.50;;;;;;5084252;28;20619;-60
2021/01/20 04:24:15;;;;;;;2.20;2.00;;;17.30;52.50;;;;;;5084554;28;20729;-60
2021/01/20 04:26:42;;;;;;;2.00;1.85;;;17.30;52.50;;;;;;5084315;28;20579;-57
2021/01/20 04:29:07;;;;;;;1.60;1.50;;;17.30;52.50;;;;;;5084358;28;20189;-59
2021/01/20 04:31:33;;;;;;;1.60;1.50;;;17.30;52.60;;;;;;5084103;28;20203;-56
2021/01/20 04:33:58;;;;;;;2.72;1.88;;;17.30;52.50;;;;;;5084669;28;20641;-59
2021/01/20 04:36:25;;;;;;;2.20;2.00;;;17.30;52.50;;;;;;5084321;28;20203;-58
2021/01/20 04:38:51;;;;;;;2.47;2.00;;;17.30;52.50;;;;;;5084275;28;20214;-60
2021/01/20 04:41:17;;;;;;;2.17;1.80;;;17.20;52.50;;;;;;5066372;28;20247;-60
2021/01/20 04:43:43;;;;;;;1.60;1.50;;;17.20;52.50;;;;;;5084297;28;20212;-59
2021/01/20 04:46:09;;;;;;;2.45;1.95;;;17.20;52.50;;;;;;5066459;28;21003;-60
2021/01/20 04:48:34;;;;;;;3.35;2.55;;;17.30;52.50;;;;;;5066329;28;20454;-55
2021/01/20 04:51:04;;;;;;;2.55;2.00;;;17.20;52.40;;;;;;5084001;28;21050;-59
2021/01/20 04:53:31;;;;;;;2.35;2.15;;;17.20;52.40;;;;;;5084089;28;20178;-59
2021/01/20 04:55:56;;;;;;;2.30;2.10;;;17.20;52.40;;;;;;5065804;28;20176;-60
2021/01/20 04:58:22;;;;;;;2.10;1.88;;;17.20;52.40;;;;;;5066563;28;20186;-57
2021/01/20 05:00:48;;;;;;;1.90;1.70;;;17.20;52.40;;;;;;5066320;28;20178;-59
2021/01/20 05:03:13;;;;;;;2.00;1.80;;;17.20;52.40;;;;;;5066031;28;20234;-58
2021/01/20 05:05:39;;;;;;;2.38;2.17;;;17.20;52.40;;;;;;5083937;28;20896;-60
2021/01/20 05:08:05;;;;;;;2.67;2.03;;;17.20;52.40;;;;;;5083630;28;20801;-58
2021/01/20 05:10:30;;;;;;;2.15;1.92;;;17.10;52.40;;;;;;5084022;28;20933;-59
2021/01/20 05:12:56;;;;;;;2.70;2.20;;;17.20;52.40;;;;;;5083835;28;20173;-60
2021/01/20 05:15:32;;;;;;;2.15;2.00;;;17.20;52.40;;;;;;5065976;28;20282;-56
2021/01/20 05:18:03;;;;;;;2.53;1.88;;;17.10;52.30;;;;;;5085376;28;20172;-58
2021/01/20 05:20:32;;;;;;;2.03;1.83;;;17.10;52.40;;;;;;5087564;28;20235;-58
2021/01/20 05:23:02;;;;;;;1.83;1.73;;;17.10;52.40;;;;;;5087604;28;20731;-58
2021/01/20 05:25:29;;;;;;;1.60;1.50;;;17.10;52.40;;;;;;5087343;28;20584;-59
2021/01/20 05:27:55;;;;;;;1.70;1.60;;;17.10;52.40;;;;;;5087488;28;20206;-57
2021/01/20 05:30:21;;;;;;;2.63;2.00;;;17.10;52.40;;;;;;5087158;28;20201;-59
2021/01/20 05:32:56;;;;;;;2.38;2.17;;;17.10;52.40;;;;;;5087377;28;20201;-57
2021/01/20 05:35:22;;;;;;;1.77;1.67;;;17.10;52.40;;;;;;5069041;28;20178;-58
2021/01/20 05:37:48;;;;;;;2.17;1.98;;;17.10;52.50;;;;;;5087145;28;20532;-57
2021/01/20 05:40:15;;;;;;;2.22;1.98;;;17.10;52.40;;;;;;5087549;28;20243;-59
2021/01/20 05:42:50;;;;;;;1.70;1.60;;;17.00;52.40;;;;;;5086938;28;20196;-59
2021/01/20 05:45:19;;;;;;;2.05;1.85;;;17.10;52.40;;;;;;5087287;28;20169;-60
2021/01/20 05:48:04;;;;;;;1.80;1.70;;;17.10;52.40;;;;;;5087254;28;20201;-57
2021/01/20 05:50:30;;;;;;;2.63;2.00;;;17.10;52.40;;;;;;5086934;28;20193;-60
2021/01/20 05:53:11;;;;;;;4.03;2.28;;;17.00;52.40;;;;;;5087132;28;20184;-59
2021/01/20 05:55:38;;;;;;;1.98;1.88;;;17.00;52.40;;;;;;5086663;28;20519;-57
2021/01/20 05:58:07;;;;;;;2.45;2.25;;;17.00;52.30;;;;;;5086689;28;20213;-59
2021/01/20 06:00:32;;;;;;;2.25;1.98;;;17.00;52.30;;;;;;5086720;28;20634;-59
2021/01/20 06:02:58;;;;;;;2.10;1.70;;;17.00;52.40;;;;;;5068658;28;20181;-59
2021/01/20 06:05:24;;;;;;;2.15;2.00;;;17.10;52.60;;;;;;5086471;28;20571;-56
2021/01/20 06:07:51;;;;;;;1.80;1.70;;;17.10;52.50;;;;;;5086428;28;20202;-58
2021/01/20 06:10:17;;;;;;;1.73;1.58;;;17.10;52.40;;;;;;5086439;28;20639;-59
2021/01/20 06:12:42;;;;;;;2.03;1.83;;;17.10;52.40;;;;;;5086747;28;20201;-58
2021/01/20 06:15:08;;;;;;;2.17;1.80;;;17.00;52.50;;;;;;5068560;28;20197;-55
2021/01/20 06:17:35;;;;;;;2.22;2.10;;;17.10;52.50;;;;;;5086453;28;20177;-60
2021/01/20 06:20:04;;;;;;;2.05;1.85;;;17.10;52.50;;;;;;5085972;28;20243;-61
2021/01/20 06:22:31;;;;;;;2.10;1.88;;;17.10;52.50;;;;;;5086641;28;20189;-55
2021/01/20 06:25:22;;;;;;;1.52;1.42;;;17.10;52.50;;;;;;5086245;28;20166;-57
2021/01/20 06:27:54;;;;;;;1.83;1.70;;;17.10;52.50;;;;;;5069814;28;20216;-59
2021/01/20 06:30:24;;;;;;;2.22;1.90;;;17.00;52.40;;;;;;5068613;28;20223;-60
2021/01/20 06:32:50;;;;;;;1.98;1.88;;;17.10;52.60;;;;;;5086169;28;20172;-54
2021/01/20 06:35:16;;;;;;;2.53;2.10;;;17.00;52.60;;;;;;5068095;28;20177;-56
2021/01/20 06:37:45;;;;;;;2.03;1.90;;;17.00;52.50;;;;;;5086026;28;20219;-59
2021/01/20 06:40:20;;;;;;;2.10;2.00;;;17.00;52.50;;;;;;5086128;28;20227;-56
2021/01/20 06:42:47;;;;;;;2.20;2.00;;;17.00;52.50;;;;;;5085817;28;20169;-60
2021/01/20 06:45:22;;;;;;;2.35;2.15;;;17.00;52.50;;;;;;5085904;28;20174;-58
2021/01/20 06:47:59;;;;;;;1.70;1.60;;;17.00;52.50;;;;;;5085957;28;20343;-60
2021/01/20 06:50:29;;;;;;;1.80;1.70;;;16.90;52.40;;;;;;5085478;28;20303;-59
2021/01/20 06:53:05;;;;;;;2.55;2.05;;;16.90;52.40;;;;;;5085908;28;20173;-58
2021/01/20 06:55:31;;;;;;;1.98;1.70;;;16.90;52.40;;;;;;5085806;28;20605;-57
2021/01/20 06:58:24;;;;;;;1.90;1.70;;;16.90;52.40;;;;;;5085624;28;20201;-57
2021/01/20 07:00:58;;;;;;;2.13;1.92;;;16.90;52.50;;;;;;5085629;28;20726;-57
2021/01/20 07:03:41;;;;;;;1.70;1.60;;;16.90;52.40;;;;;;5086197;28;20680;-54
2021/01/20 07:06:35;;;;;;;2.63;1.67;;;16.90;52.40;;;;;;5085437;28;20177;-54
2021/01/20 07:09:01;;;;;;;2.05;1.85;;;16.90;52.40;;;;;;5085641;28;21070;-57
2021/01/20 07:11:27;;;;;;;2.08;1.75;;;16.90;52.40;;;;;;5085305;28;21000;-59
2021/01/20 07:13:52;;;;;;;2.30;2.10;;;16.90;52.30;;;;;;5085486;28;20177;-58
2021/01/20 07:16:18;;;;;;;1.63;1.52;;;17.00;52.30;;;;;;5067156;28;20989;-59
2021/01/20 07:18:48;;;;;;;1.70;1.60;;;17.00;52.30;;;;;;5085348;28;20221;-59
2021/01/20 07:21:13;;;;;;;1.95;1.85;;;17.10;52.30;;;;;;5085413;28;20174;-57
2021/01/20 07:23:39;;;;;;;1.80;1.70;;;17.10;52.20;;;;;;5085222;28;20248;-58
2021/01/20 07:26:06;;;;;;;1.88;1.77;;;17.00;52.20;;;;;;5085217;28;20231;-58
2021/01/20 07:28:32;;;;;;;1.75;1.65;;;17.00;52.20;;;;;;5085282;28;20244;-55
2021/01/20 07:31:04;;;;;;;2.30;2.10;;;17.00;52.20;;;;;;5085030;28;20205;-55
2021/01/20 07:33:30;;;;;;;1.58;1.48;;;17.00;52.20;;;;;;5085062;28;20172;-55
2021/01/20 07:35:55;;;;;;;1.60;1.50;;;17.00;52.20;;;;;;5084998;28;20182;-58
2021/01/20 07:38:21;;;;;;;1.58;1.48;;;17.00;52.20;;;;;;5066828;28;20173;-57
2021/01/20 07:40:46;;;;;;;1.80;1.40;;;17.00;52.30;;;;;;5066375;28;20313;-58
2021/01/20 07:43:22;;;;;;;2.17;1.98;;;17.00;52.20;;;;;;5084681;28;20203;-57
2021/01/20 07:45:48;;;;;;;1.90;1.77;;;17.10;52.20;;;;;;5085023;28;20208;-60
2021/01/20 07:48:13;;;;;;;1.83;1.70;;;17.10;52.90;;;;;;5084348;28;20636;-58
2021/01/20 07:50:43;;;;;;;2.45;1.88;;;17.10;52.10;;;;;;5084639;28;20185;-60
2021/01/20 07:53:13;;;;;;;2.00;1.80;;;17.20;52.00;;;;;;5084644;28;20178;-57
2021/01/20 07:55:39;;;;;;;1.83;1.60;;;17.20;52.00;;;;;;5084915;28;20193;-57
2021/01/20 07:58:04;;;;;;;1.75;1.65;;;17.20;52.00;;;;;;5066879;28;20169;-59
2021/01/20 08:00:30;;;;;;;1.48;1.38;;;17.20;52.00;;;;;;5066899;28;20199;-56
2021/01/20 08:03:01;;;;;;;1.50;1.40;;;17.20;52.10;;;;;;5084568;28;20184;-56
2021/01/20 08:05:33;;;;;;;2.20;1.77;;;17.10;52.00;;;;;;5084351;28;20196;-57
2021/01/20 08:08:06;;;;;;;2.63;1.42;;;17.10;52.10;;;;;;5084462;28;20335;-59
2021/01/20 08:10:32;;;;;;;1.77;1.67;;;17.10;52.20;;;;;;5084488;28;20285;-58
2021/01/20 08:12:58;;;;;;;1.55;1.45;;;17.10;52.10;;;;;;5084215;28;20261;-65
2021/01/20 08:15:24;;;;;;;3.00;1.80;;;17.20;52.20;;;;;;5066296;28;20177;-65
2021/01/20 08:17:49;;;;;;;1.80;1.50;;;17.20;52.20;;;;;;5049602;28;20712;-65
2021/01/20 08:20:15;;;;;;;1.95;1.85;;;17.20;52.20;;;;;;5065719;28;20190;-65
2021/01/20 08:22:47;;;;;;;1.77;1.60;;;17.20;52.30;;;;;;5084407;28;20170;-66
2021/01/20 08:25:20;;;;;;;1.73;1.63;;;17.20;52.30;;;;;;5084098;28;20292;-66
2021/01/20 08:27:46;;;;;;;1.38;1.23;;;17.20;52.50;;;;;;5084000;28;20201;-65
2021/01/20 08:30:13;;;;;;;1.70;1.60;;;17.30;52.70;;;;;;5066469;28;20616;-66
2021/01/20 08:32:54;;;;;;;1.52;1.42;;;17.30;52.50;;;;;;5084074;28;20205;-65
2021/01/20 08:35:30;;;;;;;2.97;1.60;;;17.40;52.60;;;;;;5084272;28;20579;-64
2021/01/20 08:37:56;;;;;;;2.35;1.88;;;17.30;52.60;;;;;;5065994;28;20173;-64
2021/01/20 08:40:22;;;;;;;1.55;1.45;;;17.30;52.50;;;;;;5084419;28;20488;-66
2021/01/20 08:42:47;;;;;;;2.13;1.77;;;17.30;52.60;;;;;;5066274;28;20201;-65
2021/01/20 08:45:19;;;;;;;1.70;1.60;;;17.30;52.70;;;;;;5084065;28;20214;-67
2021/01/20 08:47:56;;;;;;;2.65;1.65;;;17.30;52.80;;;;;;5084200;28;20237;-65
2021/01/20 08:50:27;;;;;;;2.38;2.03;;;17.30;52.90;;;;;;5084208;28;20172;-66
2021/01/20 08:52:54;;;;;;;3.60;1.73;;;17.20;52.80;;;;;;5085447;28;20504;-63
2021/01/20 08:55:21;;;;;;;3.50;1.80;;;17.20;53.10;;;;;;5088338;28;20194;-65
2021/01/20 08:57:46;;;;;;;1.73;1.60;;;17.20;53.10;;;;;;5088096;28;20170;-64
2021/01/20 09:00:12;;;;;;;1.88;1.52;;;17.20;53.40;;;;;;5087769;28;20204;-63
2021/01/20 09:02:38;;;;;;;3.78;1.58;;;17.20;53.60;;;;;;5103462;28;20535;-64
2021/01/20 09:05:04;;;;;;;3.38;2.00;;;17.20;53.40;;;;;;5087803;28;20172;-61
2021/01/20 09:07:30;;;;;;;2.50;1.70;;;17.30;53.90;;;;;;5087934;28;20236;-63
2021/01/20 09:09:55;;;;;;;3.42;2.05;;;17.30;53.60;;;;;;5087709;28;20227;-61
2021/01/20 09:12:21;;;;;;;2.05;1.75;;;17.30;53.70;;;;;;5087688;28;20636;-62
2021/01/20 09:14:46;;;;;;;1.42;1.33;;;17.30;53.70;;;;;;5087870;28;20562;-62
2021/01/20 09:17:12;;;;;;;2.63;1.80;;;17.30;53.70;;;;;;5087497;28;20178;-61
2021/01/20 09:19:37;;;;;;;1.95;1.85;;;17.40;53.70;;;;;;5087618;28;20174;-60
2021/01/20 09:22:03;;;;;;;4.22;1.92;;;17.40;53.70;;;;;;5087359;28;20651;-62
2021/01/20 09:24:30;;;;;;;1.80;1.70;;;17.40;54.00;;;;;;5087623;28;20170;-65
2021/01/20 09:26:56;;;;;;;2.60;1.63;;;17.50;54.00;;;;;;5069708;28;20218;-62
2021/01/20 09:29:27;;;;;;;2.53;1.63;;;17.50;54.00;;;;;;5087606;28;20201;-62
2021/01/20 09:31:53;;;;;;;2.05;1.77;;;17.50;53.90;;;;;;5087140;28;20623;-60
2021/01/20 09:34:19;;;;;;;2.20;1.60;;;17.50;53.90;;;;;;5087107;28;20174;-62
2021/01/20 09:36:45;;;;;;;4.07;1.88;;;17.50;53.90;;;;;;5087350;28;20577;-61
2021/01/20 09:39:10;;;;;;;3.03;1.25;;;17.40;54.00;;;;;;5069400;28;20174;-61
2021/01/20 09:41:36;;;;;;;1.52;1.30;;;17.50;54.10;;;;;;5086932;28;20185;-62
2021/01/20 09:44:01;;;;;;;1.88;1.55;;;17.40;54.00;;;;;;5086816;28;20180;-63
2021/01/20 09:46:27;;;;;;;3.55;1.50;;;17.40;53.90;;;;;;5087369;28;20232;-62
2021/01/20 09:48:52;;;;;;;3.92;1.55;;;17.50;54.00;;;;;;5086869;28;20217;-62
2021/01/20 09:51:18;;;;;;;1.80;1.60;;;17.50;53.90;;;;;;5087106;28;20261;-62
2021/01/20 09:53:43;;;;;;;1.52;1.42;;;17.50;53.80;;;;;;5069013;28;20630;-62
2021/01/20 09:56:09;;;;;;;1.70;1.30;;;17.50;53.80;;;;;;5086894;28;20520;-61
2021/01/20 09:58:39;;;;;;;2.20;1.45;;;17.50;53.70;;;;;;5086948;28;20256;-62
2021/01/20 10:01:05;;;;;;;1.88;1.40;;;17.50;53.70;;;;;;5087094;28;20166;-63
2021/01/20 10:03:30;;;;;;;4.63;1.60;;;17.50;53.70;;;;;;5086040;28;20542;-61
2021/01/20 10:05:56;;;;;;;2.35;1.50;;;17.60;53.70;;;;;;5086898;28;20178;-61
2021/01/20 10:08:22;;;;;;;1.58;1.42;;;17.60;53.70;;;;;;5068898;28;20741;-62
2021/01/20 10:10:48;;;;;;;2.13;1.70;;;17.60;53.70;;;;;;5086572;28;20231;-62
2021/01/20 10:13:13;;;;;;;1.42;1.33;;;17.50;53.70;;;;;;5086378;28;20223;-61
2021/01/20 10:15:40;;;;;;;2.85;1.50;;;17.50;53.70;;;;;;5086726;28;20533;-63
2021/01/20 10:18:06;;;;;;;1.80;1.70;;;17.50;53.70;;;;;;5086600;28;20221;-62
2021/01/20 10:20:31;;;;;;;1.73;1.45;;;17.50;53.70;;;;;;5086623;28;20178;-62
2021/01/20 10:22:57;;;;;;;1.33;1.25;;;17.50;53.90;;;;;;5086564;28;20658;-61
2021/01/20 10:25:29;;;;;;;2.03;1.45;;;17.50;53.90;;;;;;5086404;28;20518;-63
2021/01/20 10:27:59;;;;;;;1.30;1.20;;;17.50;53.80;;;;;;5086336;28;20202;-62
2021/01/20 10:30:28;;;;;;;2.17;1.40;;;17.40;53.80;;;;;;5086119;28;20194;-61
2021/01/20 10:32:54;;;;;;;1.42;1.30;;;17.40;53.80;;;;;;5085926;28;20615;-65
2021/01/20 10:35:19;;;;;;;1.42;1.30;;;17.40;53.70;;;;;;5086234;28;20174;-60
2021/01/20 10:37:46;;;;;;;3.20;1.48;;;17.40;53.70;;;;;;5086137;28;20182;-62
2021/01/20 10:40:12;;;;;;;1.67;1.42;;;17.40;53.80;;;;;;5086065;28;20526;-61
2021/01/20 10:42:38;;;;;;;2.00;1.50;;;17.30;53.80;;;;;;5085775;28;20170;-62
2021/01/20 10:45:04;;;;;;;1.63;1.52;;;17.40;53.80;;;;;;5085808;28;20182;-65
2021/01/20 10:47:30;;;;;;;2.47;1.40;;;17.30;53.80;;;;;;5085624;28;20210;-62
2021/01/20 10:49:55;;;;;;;1.83;1.38;;;17.40;53.90;;;;;;5067973;28;20166;-61
2021/01/20 10:52:21;;;;;;;2.13;1.30;;;17.40;53.90;;;;;;5085622;28;20223;-62
2021/01/20 10:54:47;;;;;;;1.50;1.40;;;17.40;53.80;;;;;;5067850;28;20546;-61
2021/01/20 10:57:12;;;;;;;1.90;1.52;;;17.50;53.80;;;;;;5085713;28;20204;-62
2021/01/20 10:59:41;;;;;;;2.63;1.50;;;17.40;53.80;;;;;;5085765;28;20178;-62
2021/01/20 11:02:08;;;;;;;1.85;1.48;;;17.50;53.80;;;;;;5085324;28;20584;-63
2021/01/20 11:04:34;;;;;;;2.45;1.50;;;17.40;53.80;;;;;;5085469;28;20658;-62
2021/01/20 11:07:00;;;;;;;1.85;1.42;;;17.40;53.70;;;;;;5085607;28;20252;-63
2021/01/20 11:09:26;;;;;;;1.60;1.38;;;17.40;53.70;;;;;;5085406;28;20170;-62
2021/01/20 11:11:51;;;;;;;1.73;1.45;;;17.40;53.70;;;;;;5084957;28;20165;-62
2021/01/20 11:14:17;;;;;;;1.60;1.40;;;17.40;53.70;;;;;;5085324;28;20655;-64
2021/01/20 11:16:43;;;;;;;1.50;1.40;;;17.40;53.70;;;;;;5085012;28;20174;-62
2021/01/20 11:19:08;;;;;;;1.40;1.30;;;17.40;53.70;;;;;;5067460;28;20182;-63
2021/01/20 11:21:34;;;;;;;1.48;1.33;;;17.40;53.60;;;;;;5084968;28;20174;-63
2021/01/20 11:23:59;;;;;;;1.50;1.40;;;17.50;53.50;;;;;;5085082;28;20170;-61
2021/01/20 11:26:25;;;;;;;2.35;1.65;;;17.50;53.40;;;;;;5085400;28;20228;-61
2021/01/20 11:28:50;;;;;;;2.40;1.30;;;17.50;53.40;;;;;;5085604;28;20217;-60
2021/01/20 11:31:16;;;;;;;2.08;1.45;;;17.50;53.40;;;;;;5067064;28;20264;-61
2021/01/20 11:33:41;;;;;;;1.98;1.45;;;17.40;53.80;;;;;;5085154;28;20193;-61
2021/01/20 11:36:07;;;;;;;1.65;1.40;;;17.40;53.80;;;;;;5066813;28;20182;-61
2021/01/20 11:38:32;;;;;;;2.50;1.48;;;17.40;54.00;;;;;;5085171;28;20170;-64
2021/01/20 11:40:58;;;;;;;1.55;1.10;;;17.30;54.10;;;;;;5085004;28;20992;-61
2021/01/20 11:43:24;;;;;;;2.55;1.48;;;17.20;54.00;;;;;;5084631;28;20925;-59
2021/01/20 11:45:49;;;;;;;2.08;1.30;;;17.40;54.10;;;;;;5084620;28;20177;-61
2021/01/20 11:48:15;;;;;;;3.13;1.58;;;17.40;53.90;;;;;;5084822;28;20209;-63
2021/01/20 11:50:40;;;;;;;2.10;1.42;;;17.40;53.70;;;;;;5084749;28;20997;-63
2021/01/20 11:53:06;;;;;;;1.65;1.52;;;17.50;53.60;;;;;;5084569;28;20199;-63
2021/01/20 11:55:31;;;;;;;1.95;1.60;;;17.50;53.50;;;;;;5084786;28;20912;-63
2021/01/20 11:57:57;;;;;;;1.38;1.27;;;17.50;53.40;;;;;;5084274;28;20549;-62
2021/01/20 12:00:23;;;;;;;2.55;1.40;;;17.70;53.30;;;;;;5084382;28;20177;-62
2021/01/20 12:02:48;;;;;;;1.48;1.38;;;17.90;53.00;;;;;;5084418;28;20943;-62
2021/01/20 12:05:16;;;;;;;1.42;1.33;;;18.10;52.70;;;;;;5084417;28;20197;-61
2021/01/20 12:07:43;;;;;;;2.40;1.10;;;18.40;52.20;;;;;;5066333;28;20217;-62
2021/01/20 12:10:10;;;;;;;3.38;1.50;;;18.80;51.70;;;;;;5066737;28;20722;-66
2021/01/20 12:12:36;;;;;;;2.20;1.30;;;19.10;51.30;;;;;;5065710;28;20619;-62
2021/01/20 12:15:02;;;;;;;1.58;1.23;;;19.30;51.10;;;;;;5083937;28;20173;-62
2021/01/20 12:17:27;;;;;;;1.25;1.00;;;19.60;50.50;;;;;;5084382;28;20594;-63
2021/01/20 12:19:53;;;;;;;2.67;1.30;;;19.80;50.20;;;;;;5066433;28;20663;-63
2021/01/20 12:22:18;;;;;;;2.17;1.08;;;19.90;49.70;;;;;;5083713;28;20185;-63
2021/01/20 12:24:44;;;;;;;1.88;1.38;;;20.00;49.60;;;;;;5084208;28;20257;-63
2021/01/20 12:27:09;;;;;;;1.50;1.33;;;20.00;49.60;;;;;;5083607;28;20173;-63
2021/01/20 12:29:35;;;;;;;1.27;1.17;;;20.10;49.50;;;;;;5084141;28;20197;-62
2021/01/20 12:32:01;;;;;;;1.58;1.13;;;20.10;49.50;;;;;;5084205;28;20170;-63
2021/01/20 12:34:27;;;;;;;1.98;1.35;;;20.10;49.40;;;;;;5084021;28;20184;-62
2021/01/20 12:36:52;;;;;;;1.30;1.20;;;20.00;49.40;;;;;;5084117;28;20591;-61
2021/01/20 12:39:18;;;;;;;2.63;1.40;;;20.00;49.50;;;;;;5084029;28;20182;-63
2021/01/20 12:41:43;;;;;;;1.27;1.15;;;20.00;49.40;;;;;;5084080;28;20170;-61
2021/01/20 12:44:09;;;;;;;1.40;1.27;;;20.00;49.40;;;;;;5083664;28;20201;-62
2021/01/20 12:46:35;;;;;;;1.20;1.10;;;19.90;49.40;;;;;;5084175;28;20173;-63
2021/01/20 12:49:00;;;;;;;2.58;1.38;;;19.90;49.40;;;;;;5083645;28;20209;-63